Time;durP1;ratioP1;P1;durP2;ratioP2;P2;SDS_P1;SDS_P2;PMS_P1;PMS_P2;Temp;Humidity;BMP_temperature;BMP_pressure;BME280_temperature;BME280_humidity;BME280_pressure;Samples;Min_cycle;Max_cycle;Signal;HPM_P1;HPM_P2
2022/03/07 00:00:27;;;;;;;0.10;0.10;;;;;;;23.02;15.52;100157.97;5053931;28;20025;-74
2022/03/07 00:02:54;;;;;;;0.10;0.10;;;;;;;23.02;15.27;100163.41;5053993;28;20472;-74
2022/03/07 00:05:19;;;;;;;0.13;0.13;;;;;;;23.02;15.25;100170.78;5036244;28;20039;-75
2022/03/07 00:07:44;;;;;;;0.20;0.20;;;;;;;23.02;15.46;100168.88;5054308;28;20025;-74
2022/03/07 00:10:10;;;;;;;0.10;0.10;;;;;;;22.99;15.45;100174.91;5053925;28;20025;-74
2022/03/07 00:12:35;;;;;;;0.10;0.10;;;;;;;23.02;15.21;100178.97;5053618;28;20395;-75
2022/03/07 00:15:01;;;;;;;0.10;0.10;;;;;;;22.92;15.49;100168.91;5054013;28;20021;-74
2022/03/07 00:17:26;;;;;;;0.10;0.10;;;;;;;23.01;15.35;100188.25;5053758;28;20100;-74
2022/03/07 00:19:52;;;;;;;0.28;0.10;;;;;;;22.99;15.28;100188.53;5053704;28;20033;-75
2022/03/07 00:22:17;;;;;;;0.10;0.10;;;;;;;23.01;15.36;100194.50;5053679;28;20025;-74
2022/03/07 00:24:43;;;;;;;0.10;0.10;;;;;;;23.03;15.15;100195.03;5053239;28;20474;-74
2022/03/07 00:27:08;;;;;;;0.20;0.20;;;;;;;22.99;15.15;100196.69;5053243;28;20494;-74
2022/03/07 00:29:33;;;;;;;0.10;0.10;;;;;;;23.01;15.32;100193.69;5053634;28;20040;-74
2022/03/07 00:31:59;;;;;;;0.10;0.10;;;;;;;23.00;14.99;100192.88;5053360;28;20025;-74
2022/03/07 00:34:24;;;;;;;0.10;0.10;;;;;;;23.01;15.15;100182.81;5053591;28;20029;-75
2022/03/07 00:36:50;;;;;;;0.10;0.10;;;;;;;23.00;15.19;100194.78;5052626;28;20021;-75
2022/03/07 00:39:15;;;;;;;0.13;0.13;;;;;;;23.00;15.25;100198.31;5053129;28;20361;-75
2022/03/07 00:41:40;;;;;;;0.10;0.10;;;;;;;22.99;15.05;100201.31;5053479;28;20044;-74
2022/03/07 00:44:06;;;;;;;0.17;0.17;;;;;;;22.98;15.20;100192.31;5035595;28;20492;-75
2022/03/07 00:46:31;;;;;;;0.10;0.10;;;;;;;22.97;15.06;100198.84;5053457;28;20025;-74
2022/03/07 00:48:57;;;;;;;0.15;0.15;;;;;;;22.98;14.92;100199.69;5053088;28;20430;-74
2022/03/07 00:51:23;;;;;;;0.20;0.20;;;;;;;22.98;15.07;100205.97;5053302;28;20025;-75
2022/03/07 00:53:49;;;;;;;0.10;0.10;;;;;;;22.95;15.00;100201.03;5053326;28;20033;-75
2022/03/07 00:56:14;;;;;;;0.10;0.10;;;;;;;22.97;14.98;100206.22;5053347;28;20128;-74
2022/03/07 00:58:40;;;;;;;0.10;0.10;;;;;;;22.99;14.93;100215.78;5053557;28;20349;-74
2022/03/07 01:01:05;;;;;;;0.10;0.10;;;;;;;23.00;14.88;100217.38;5053544;28;20029;-75
2022/03/07 01:03:30;;;;;;;0.20;0.20;;;;;;;22.99;14.92;100215.78;5053237;28;20028;-74
2022/03/07 01:05:56;;;;;;;0.10;0.10;;;;;;;22.99;14.95;100213.06;5053203;28;20029;-75
2022/03/07 01:08:22;;;;;;;0.10;0.10;;;;;;;22.96;14.87;100208.16;5053072;28;20033;-74
2022/03/07 01:10:48;;;;;;;0.10;0.10;;;;;;;22.97;14.98;100207.03;5053126;28;20361;-74
2022/03/07 01:13:13;;;;;;;0.10;0.10;;;;;;;22.97;14.88;100215.22;5053261;28;20082;-74
2022/03/07 01:15:39;;;;;;;0.10;0.10;;;;;;;22.99;14.95;100214.94;5053138;28;20025;-74
2022/03/07 01:18:04;;;;;;;0.10;0.10;;;;;;;22.98;15.00;100219.56;5052829;28;20033;-74
2022/03/07 01:20:30;;;;;;;0.10;0.10;;;;;;;22.93;14.86;100219.59;5052838;28;20060;-73
2022/03/07 01:22:55;;;;;;;0.10;0.10;;;;;;;22.96;14.89;100240.84;5052680;28;20052;-74
2022/03/07 01:25:21;;;;;;;0.10;0.10;;;;;;;22.93;14.88;100237.84;5053049;28;20032;-74
2022/03/07 01:27:46;;;;;;;0.10;0.10;;;;;;;22.98;14.76;100237.84;5035296;28;20044;-74
2022/03/07 01:30:11;;;;;;;0.10;0.10;;;;;;;22.98;14.87;100243.31;5052738;28;20414;-75
2022/03/07 01:32:37;;;;;;;0.10;0.10;;;;;;;22.98;14.76;100237.84;5052953;28;20060;-75
2022/03/07 01:35:04;;;;;;;0.20;0.10;;;;;;;22.96;14.75;100249.03;5053006;28;20034;-75
2022/03/07 01:37:29;;;;;;;0.10;0.10;;;;;;;22.96;14.66;100259.91;5053099;28;20021;-75
2022/03/07 01:39:54;;;;;;;0.20;0.20;;;;;;;22.94;14.69;100253.94;5053133;28;20029;-74
2022/03/07 01:42:20;;;;;;;0.10;0.10;;;;;;;22.98;14.95;100265.09;5034980;28;20033;-76
2022/03/07 01:44:45;;;;;;;0.20;0.20;;;;;;;22.95;14.92;100265.63;5052881;28;20025;-74
2022/03/07 01:47:11;;;;;;;0.10;0.10;;;;;;;22.95;14.67;100266.44;5053282;28;20103;-74
2022/03/07 01:49:36;;;;;;;0.10;0.10;;;;;;;22.98;14.74;100282.25;5056127;28;20036;-73
2022/03/07 01:52:02;;;;;;;0.20;0.20;;;;;;;22.96;14.82;100279.00;5056488;28;20025;-75
2022/03/07 01:54:27;;;;;;;0.10;0.10;;;;;;;22.95;15.02;100277.34;5056898;28;20049;-75
2022/03/07 01:56:53;;;;;;;0.10;0.10;;;;;;;22.98;14.76;100292.34;5056124;28;20028;-75
2022/03/07 01:59:20;;;;;;;0.10;0.10;;;;;;;22.98;14.60;100287.72;5056340;28;20067;-75
2022/03/07 02:01:45;;;;;;;0.10;0.10;;;;;;;22.99;14.63;100291.25;5056400;28;20070;-75
2022/03/07 02:04:11;;;;;;;0.10;0.10;;;;;;;22.96;14.62;100294.53;5056231;28;20444;-74
2022/03/07 02:06:38;;;;;;;0.20;0.10;;;;;;;22.96;14.69;100298.06;5056153;28;20028;-74
2022/03/07 02:09:03;;;;;;;0.10;0.10;;;;;;;22.90;14.66;100299.16;5055997;28;20033;-74
2022/03/07 02:11:29;;;;;;;0.10;0.10;;;;;;;22.96;14.54;100300.78;5056079;28;20475;-74
2022/03/07 02:13:54;;;;;;;0.10;0.10;;;;;;;22.94;14.43;100308.44;5056084;28;20479;-74
2022/03/07 02:16:20;;;;;;;0.10;0.10;;;;;;;22.97;14.33;100310.59;5055681;28;20021;-74
2022/03/07 02:18:46;;;;;;;0.10;0.10;;;;;;;22.97;14.42;100316.03;5055932;28;20128;-74
2022/03/07 02:21:14;;;;;;;0.20;0.20;;;;;;;22.94;14.19;100319.34;5055968;28;20414;-74
2022/03/07 02:23:39;;;;;;;0.10;0.10;;;;;;;22.95;14.14;100312.78;5055738;28;20052;-74
2022/03/07 02:26:12;;;;;;;0.10;0.10;;;;;;;22.96;14.25;100319.06;5055745;28;20033;-74
2022/03/07 02:28:44;;;;;;;0.20;0.20;;;;;;;22.95;14.33;100320.13;5055711;28;20017;-75
2022/03/07 02:31:10;;;;;;;0.10;0.10;;;;;;;22.96;14.35;100324.50;5055832;28;20090;-74
2022/03/07 02:33:35;;;;;;;0.10;0.10;;;;;;;22.99;14.25;100326.66;5055670;28;20173;-75
2022/03/07 02:36:01;;;;;;;0.10;0.10;;;;;;;22.99;14.28;100334.84;5055635;28;20025;-75
2022/03/07 02:38:26;;;;;;;0.15;0.15;;;;;;;22.95;13.98;100337.31;5055531;28;20025;-75
2022/03/07 02:40:52;;;;;;;0.10;0.10;;;;;;;22.97;14.01;100339.75;5055294;28;20028;-75
2022/03/07 02:43:17;;;;;;;0.10;0.10;;;;;;;22.95;14.03;100348.19;5055536;28;20021;-74
2022/03/07 02:45:43;;;;;;;0.10;0.10;;;;;;;22.97;13.95;100350.66;5055571;28;20028;-74
2022/03/07 02:48:09;;;;;;;0.10;0.10;;;;;;;22.96;14.01;100349.84;5055359;28;20029;-74
2022/03/07 02:50:34;;;;;;;0.10;0.10;;;;;;;22.95;13.91;100345.47;5055538;28;20025;-75
2022/03/07 02:53:00;;;;;;;0.10;0.10;;;;;;;22.95;13.95;100337.31;5055480;28;20506;-75
2022/03/07 02:55:25;;;;;;;0.10;0.10;;;;;;;22.98;14.00;100342.22;5055715;28;20086;-74
2022/03/07 02:57:51;;;;;;;0.10;0.10;;;;;;;22.97;13.92;100354.19;5054974;28;20376;-74
2022/03/07 03:00:16;;;;;;;0.10;0.10;;;;;;;22.94;13.89;100362.94;5054162;28;20029;-74
2022/03/07 03:02:42;;;;;;;0.10;0.10;;;;;;;22.94;14.09;100362.94;5054969;28;20032;-74
2022/03/07 03:05:08;;;;;;;0.10;0.10;;;;;;;22.95;13.75;100371.91;5055049;28;20032;-74
2022/03/07 03:07:33;;;;;;;0.17;0.17;;;;;;;22.93;14.08;100366.72;5054808;28;20029;-75
2022/03/07 03:10:00;;;;;;;0.10;0.10;;;;;;;22.91;13.96;100374.38;5054617;28;20029;-74
2022/03/07 03:12:26;;;;;;;0.10;0.10;;;;;;;22.90;13.93;100378.16;5054684;28;20467;-74
2022/03/07 03:14:52;;;;;;;0.10;0.10;;;;;;;22.91;13.97;100373.56;5054896;28;20029;-74
2022/03/07 03:17:17;;;;;;;0.10;0.10;;;;;;;22.92;13.82;100384.19;5054566;28;20036;-74
2022/03/07 03:19:43;;;;;;;0.10;0.10;;;;;;;22.95;13.99;100386.34;5054888;28;20078;-74
2022/03/07 03:22:08;;;;;;;0.10;0.10;;;;;;;22.93;14.01;100388.53;5046166;28;20024;-75
2022/03/07 03:24:33;;;;;;;0.10;0.10;;;;;;;22.95;13.95;100386.34;5054556;28;20041;-75
2022/03/07 03:26:59;;;;;;;0.10;0.10;;;;;;;22.94;13.89;100384.72;5054831;28;20074;-75
2022/03/07 03:29:24;;;;;;;0.13;0.13;;;;;;;22.96;13.95;100390.72;5054510;28;20029;-74
2022/03/07 03:31:50;;;;;;;0.10;0.10;;;;;;;22.95;13.78;100402.69;5054628;28;20379;-74
2022/03/07 03:34:16;;;;;;;0.20;0.20;;;;;;;22.93;13.81;100410.34;5054448;28;20041;-75
2022/03/07 03:36:42;;;;;;;0.10;0.10;;;;;;;22.97;13.95;100421.50;5036639;28;20525;-75
2022/03/07 03:39:07;;;;;;;0.10;0.10;;;;;;;22.95;13.99;100424.50;5054445;28;20467;-74
2022/03/07 03:41:32;;;;;;;0.10;0.10;;;;;;;22.93;13.92;100428.59;5054135;28;20071;-74
2022/03/07 03:43:58;;;;;;;0.10;0.10;;;;;;;22.96;13.98;100436.25;5053956;28;20083;-75
2022/03/07 03:46:23;;;;;;;0.10;0.10;;;;;;;22.96;13.74;100434.31;5054332;28;20048;-75
2022/03/07 03:48:49;;;;;;;0.10;0.10;;;;;;;22.94;13.71;100439.25;5054167;28;20036;-75
2022/03/07 03:51:14;;;;;;;0.10;0.10;;;;;;;22.95;13.85;100445.50;5054227;28;20079;-75
2022/03/07 03:53:39;;;;;;;0.20;0.20;;;;;;;22.98;13.81;100445.78;5054154;28;20021;-74
2022/03/07 03:56:05;;;;;;;0.10;0.10;;;;;;;22.95;13.73;100454.47;5054058;28;20069;-75
2022/03/07 03:58:30;;;;;;;0.10;0.10;;;;;;;22.95;13.82;100440.03;5054229;28;20032;-75
2022/03/07 04:00:56;;;;;;;0.10;0.10;;;;;;;22.94;13.61;100454.75;5053735;28;20032;-74
2022/03/07 04:03:21;;;;;;;0.10;0.10;;;;;;;22.93;13.60;100467.56;5054065;28;20017;-75
2022/03/07 04:05:46;;;;;;;0.10;0.10;;;;;;;22.98;13.66;100473.03;5053947;28;20028;-75
2022/03/07 04:08:12;;;;;;;0.20;0.20;;;;;;;23.00;13.64;100470.03;5054388;28;20053;-75
2022/03/07 04:10:37;;;;;;;0.10;0.10;;;;;;;23.03;13.42;100488.59;5053603;28;20021;-74
2022/03/07 04:13:03;;;;;;;0.10;0.10;;;;;;;23.07;13.49;100489.69;5053851;28;20028;-74
2022/03/07 04:15:28;;;;;;;0.10;0.10;;;;;;;23.08;13.31;100488.63;5053808;28;20031;-75
2022/03/07 04:17:54;;;;;;;0.10;0.10;;;;;;;23.11;13.44;100487.25;5053479;28;20026;-74
2022/03/07 04:20:19;;;;;;;0.57;0.20;;;;;;;23.15;13.28;100499.28;5053326;28;20041;-75
2022/03/07 04:22:45;;;;;;;1.33;0.10;;;;;;;23.16;13.43;100500.91;5053392;28;20130;-75
2022/03/07 04:25:10;;;;;;;0.10;0.10;;;;;;;23.19;13.35;100506.63;5053318;28;20494;-74
2022/03/07 04:27:36;;;;;;;0.10;0.10;;;;;;;23.22;13.21;100514.28;5053727;28;20032;-74
2022/03/07 04:30:03;;;;;;;0.10;0.10;;;;;;;23.25;13.28;100510.22;5053551;28;20120;-74
2022/03/07 04:32:29;;;;;;;0.10;0.10;;;;;;;23.29;13.04;100521.41;5053530;28;20025;-74
2022/03/07 04:34:55;;;;;;;0.10;0.10;;;;;;;23.31;13.17;100530.94;5053214;28;20021;-75
2022/03/07 04:37:21;;;;;;;0.10;0.10;;;;;;;23.34;13.26;100530.41;5053325;28;20032;-74
2022/03/07 04:39:46;;;;;;;0.10;0.10;;;;;;;23.37;13.06;100527.13;5053615;28;20033;-75
2022/03/07 04:42:12;;;;;;;0.10;0.10;;;;;;;23.41;12.95;100522.78;5053455;28;20029;-75
2022/03/07 04:44:37;;;;;;;0.22;0.20;;;;;;;23.39;13.02;100530.41;5053363;28;20025;-75
2022/03/07 04:47:03;;;;;;;0.20;0.20;;;;;;;23.46;13.13;100532.03;5053351;28;20029;-74
2022/03/07 04:49:28;;;;;;;0.10;0.10;;;;;;;23.49;12.92;100534.22;5052975;28;20447;-73
2022/03/07 04:51:54;;;;;;;0.32;0.10;;;;;;;23.50;12.99;100542.16;5053453;28;20033;-74
2022/03/07 04:54:19;;;;;;;0.10;0.10;;;;;;;23.51;12.99;100546.53;5053369;28;20075;-75
2022/03/07 04:56:47;;;;;;;0.10;0.10;;;;;;;23.53;12.90;100538.88;5052983;28;20502;-74
2022/03/07 04:59:13;;;;;;;0.20;0.20;;;;;;;23.54;13.23;100539.69;5053163;28;20035;-74
2022/03/07 05:01:38;;;;;;;0.13;0.13;;;;;;;23.52;12.83;100537.22;5053033;28;20025;-74
2022/03/07 05:04:04;;;;;;;0.10;0.10;;;;;;;23.56;13.12;100554.72;5053036;28;20055;-73
2022/03/07 05:06:29;;;;;;;0.10;0.10;;;;;;;23.59;13.18;100559.63;5053077;28;20040;-73
2022/03/07 05:08:54;;;;;;;1.00;0.20;;;;;;;23.65;12.94;100567.84;5052988;28;20029;-74
2022/03/07 05:11:20;;;;;;;0.13;0.13;;;;;;;23.66;12.98;100570.25;5053127;28;20036;-74
2022/03/07 05:13:45;;;;;;;0.32;0.20;;;;;;;23.66;13.15;100575.72;5053001;28;20420;-74
2022/03/07 05:16:11;;;;;;;0.20;0.20;;;;;;;23.69;13.08;100579.84;5052995;28;20459;-74
2022/03/07 05:18:36;;;;;;;0.10;0.10;;;;;;;23.72;13.04;100582.84;5052632;28;20029;-73
2022/03/07 05:21:02;;;;;;;0.20;0.20;;;;;;;23.73;13.05;100579.03;5052795;28;20021;-74
2022/03/07 05:23:27;;;;;;;0.20;0.20;;;;;;;23.75;13.06;100576.84;5055345;28;20108;-75
2022/03/07 05:25:52;;;;;;;0.10;0.10;;;;;;;23.77;12.92;100582.03;5056569;28;20459;-75
2022/03/07 05:28:18;;;;;;;0.10;0.10;;;;;;;23.76;12.74;100586.66;5056408;28;20033;-75
2022/03/07 05:30:43;;;;;;;0.10;0.10;;;;;;;23.81;12.56;100578.50;5056674;28;20029;-74
2022/03/07 05:33:09;;;;;;;0.25;0.20;;;;;;;23.80;12.79;100584.19;5056726;28;20448;-75
2022/03/07 05:35:34;;;;;;;0.10;0.10;;;;;;;23.81;12.47;100588.59;5056579;28;20036;-74
2022/03/07 05:38:00;;;;;;;0.10;0.10;;;;;;;23.86;12.15;100596.00;5056577;28;20494;-74
2022/03/07 05:40:26;;;;;;;0.10;0.10;;;;;;;23.87;12.39;100600.34;5056554;28;20025;-74
2022/03/07 05:42:51;;;;;;;0.10;0.10;;;;;;;23.86;12.70;100591.34;5056501;28;20033;-74
2022/03/07 05:45:16;;;;;;;0.20;0.20;;;;;;;23.89;12.44;100596.25;5056274;28;20036;-74
2022/03/07 05:47:42;;;;;;;0.98;0.17;;;;;;;23.96;12.52;100606.91;5056180;28;20025;-74
2022/03/07 05:50:08;;;;;;;0.40;0.10;;;;;;;23.97;12.70;100603.91;5056203;28;20468;-73
2022/03/07 05:52:35;;;;;;;0.10;0.10;;;;;;;23.97;12.51;100609.38;5055881;28;20475;-74
2022/03/07 05:55:01;;;;;;;0.15;0.15;;;;;;;23.99;12.46;100607.19;5055557;28;20427;-73
2022/03/07 05:57:26;;;;;;;0.10;0.10;;;;;;;24.04;12.61;100613.72;5055614;28;20471;-73
2022/03/07 05:59:52;;;;;;;0.10;0.10;;;;;;;24.02;12.43;100616.72;5055653;28;20040;-72
2022/03/07 06:02:17;;;;;;;0.20;0.20;;;;;;;24.05;12.54;100620.84;5055448;28;20051;-74
2022/03/07 06:04:44;;;;;;;0.10;0.10;;;;;;;24.04;12.49;100616.47;5055809;28;20036;-74
2022/03/07 06:07:09;;;;;;;0.30;0.10;;;;;;;24.00;12.27;100613.47;5055472;28;20029;-74
2022/03/07 06:09:35;;;;;;;0.10;0.10;;;;;;;24.09;12.43;100624.66;5055828;28;20029;-73
2022/03/07 06:12:00;;;;;;;1.20;0.20;;;;;;;24.10;12.48;100632.56;5055636;28;20070;-73
2022/03/07 06:14:25;;;;;;;0.75;0.20;;;;;;;24.11;12.50;100630.66;5055794;28;20025;-73
2022/03/07 06:16:51;;;;;;;0.20;0.20;;;;;;;24.12;12.33;100638.56;5055173;28;20028;-73
2022/03/07 06:19:16;;;;;;;0.15;0.15;;;;;;;24.13;12.54;100644.88;5055387;28;20036;-73
2022/03/07 06:21:41;;;;;;;0.32;0.20;;;;;;;24.14;12.56;100647.31;5055648;28;20032;-73
2022/03/07 06:24:07;;;;;;;0.30;0.20;;;;;;;24.17;12.43;100660.44;5055070;28;20175;-73
2022/03/07 06:26:32;;;;;;;0.17;0.17;;;;;;;24.17;12.32;100665.06;5055502;28;20460;-73
2022/03/07 06:29:00;;;;;;;0.98;0.40;;;;;;;24.23;12.32;100654.97;5055311;28;20029;-73
2022/03/07 06:31:26;;;;;;;3.53;0.35;;;;;;;24.29;12.40;100651.97;5055483;28;20120;-74
2022/03/07 06:33:51;;;;;;;0.95;0.40;;;;;;;24.26;12.49;100657.97;5054013;28;20174;-74
2022/03/07 06:36:16;;;;;;;0.40;0.20;;;;;;;24.10;12.61;100662.59;5037281;28;20383;-76
2022/03/07 06:38:42;;;;;;;2.15;0.43;;;;;;;24.30;12.50;100669.16;5055423;28;20033;-74
2022/03/07 06:41:07;;;;;;;1.27;0.50;;;;;;;24.38;12.50;100679.56;5055397;28;20025;-74
2022/03/07 06:43:33;;;;;;;1.98;0.50;;;;;;;24.34;12.21;100667.53;5055553;28;20464;-74
2022/03/07 06:45:59;;;;;;;0.90;0.30;;;;;;;24.33;12.48;100676.81;5054936;28;20025;-74
2022/03/07 06:48:24;;;;;;;3.47;0.40;;;;;;;24.41;12.14;100689.13;5055348;28;20021;-74
2022/03/07 06:50:49;;;;;;;1.58;0.60;;;;;;;24.43;12.29;100701.41;5055676;28;20083;-74
2022/03/07 06:53:15;;;;;;;4.10;1.00;;;;;;;24.41;11.96;100706.31;5055630;28;20443;-75
2022/03/07 06:55:40;;;;;;;2.83;1.30;;;;;;;24.50;12.27;100712.88;5056785;28;20117;-74
2022/03/07 06:58:06;;;;;;;2.17;1.20;;;;;;;24.47;12.00;100707.16;5055499;28;20028;-74
2022/03/07 07:00:32;;;;;;;2.10;0.80;;;;;;;24.50;12.04;100704.69;5057297;28;20017;-74
2022/03/07 07:02:57;;;;;;;2.10;0.73;;;;;;;24.46;12.17;100697.31;5062232;28;20031;-77
2022/03/07 07:05:23;;;;;;;2.20;0.50;;;;;;;24.50;12.10;100712.88;5045993;28;20021;-74
2022/03/07 07:07:48;;;;;;;1.20;0.55;;;;;;;24.52;11.91;100712.59;5062797;28;20052;-74
2022/03/07 07:10:20;;;;;;;1.80;0.82;;;;;;;24.52;11.83;100702.50;5063390;28;20025;-74
2022/03/07 07:12:47;;;;;;;1.48;0.73;;;;;;;24.49;12.02;100696.75;5064213;28;20036;-74
2022/03/07 07:15:12;;;;;;;2.75;0.60;;;;;;;24.50;12.02;100699.22;5063951;28;20020;-73
2022/03/07 07:17:38;;;;;;;2.33;0.90;;;;;;;24.53;11.96;100698.69;5064306;28;20080;-73
2022/03/07 07:20:04;;;;;;;0.57;0.40;;;;;;;24.55;11.96;100707.44;5068368;28;20037;-73
2022/03/07 07:22:30;;;;;;;0.52;0.50;;;;;;;24.54;11.96;100711.28;5060932;28;20476;-73
2022/03/07 07:24:55;;;;;;;3.92;1.52;;;;;;;24.58;12.16;100708.00;5061814;28;20041;-72
2022/03/07 07:27:21;;;;;;;1.27;0.57;;;;;;;24.54;11.73;100707.72;5063255;28;20371;-72
2022/03/07 07:29:46;;;;;;;4.03;1.65;;;;;;;24.55;11.66;100710.19;5046287;28;20033;-73
2022/03/07 07:32:12;;;;;;;1.30;1.20;;;;;;;24.28;12.21;100725.97;5030154;28;20418;-73
2022/03/07 07:34:37;;;;;;;5.78;1.30;;;;;;;24.29;12.19;100730.38;5067946;28;20025;-73
2022/03/07 07:37:03;;;;;;;2.20;0.80;;;;;;;24.08;12.18;100713.94;5056551;28;20028;-73
2022/03/07 07:39:28;;;;;;;4.72;1.60;;;;;;;24.22;12.15;100729.81;5057454;28;20169;-73
2022/03/07 07:41:55;;;;;;;0.43;0.40;;;;;;;24.28;11.96;100729.53;5056236;28;20044;-72
2022/03/07 07:44:21;;;;;;;1.85;0.40;;;;;;;24.47;11.86;100726.25;5055633;28;20498;-71
2022/03/07 07:46:46;;;;;;;0.50;0.20;;;;;;;24.49;11.90;100724.91;5054461;28;20021;-73
2022/03/07 07:49:12;;;;;;;2.50;0.57;;;;;;;24.54;11.82;100724.09;5054902;28;20497;-72
2022/03/07 07:51:37;;;;;;;1.52;0.30;;;;;;;24.53;11.85;100739.66;5054577;28;20024;-73
2022/03/07 07:54:03;;;;;;;0.45;0.30;;;;;;;24.54;11.95;100738.59;5055991;28;20086;-72
2022/03/07 07:56:28;;;;;;;0.80;0.40;;;;;;;24.57;11.74;100755.53;5057077;28;20017;-73
2022/03/07 07:58:54;;;;;;;0.52;0.20;;;;;;;24.66;11.83;100762.91;5054182;28;20055;-71
2022/03/07 08:01:19;;;;;;;0.77;0.40;;;;;;;24.66;11.84;100773.03;5054854;28;20021;-72
2022/03/07 08:03:44;;;;;;;2.10;0.75;;;;;;;24.64;12.27;100780.69;5054173;28;20032;-72
2022/03/07 08:06:10;;;;;;;2.83;0.90;;;;;;;24.68;12.08;100787.22;5053738;28;20432;-72
2022/03/07 08:08:35;;;;;;;4.30;1.38;;;;;;;24.68;11.62;100781.78;5053973;28;20033;-73
2022/03/07 08:11:01;;;;;;;4.55;1.42;;;;;;;24.74;12.04;100780.69;5054084;28;20117;-73
2022/03/07 08:13:26;;;;;;;2.72;1.33;;;;;;;24.70;11.77;100774.13;5053661;28;20025;-71
2022/03/07 08:15:51;;;;;;;2.60;1.33;;;;;;;24.63;11.70;100779.88;5052949;28;20383;-72
2022/03/07 08:18:17;;;;;;;1.30;0.80;;;;;;;24.65;11.64;100771.41;5053191;28;20075;-71
2022/03/07 08:20:43;;;;;;;2.65;0.93;;;;;;;24.71;11.42;100786.69;5035121;28;20090;-73
2022/03/07 08:23:08;;;;;;;3.10;1.05;;;;;;;24.75;11.46;100774.16;5052970;28;20057;-72
2022/03/07 08:25:34;;;;;;;3.05;0.82;;;;;;;24.78;11.74;100787.25;5053504;28;20025;-72
2022/03/07 08:27:59;;;;;;;1.98;0.70;;;;;;;24.80;11.99;100778.78;5053925;28;20021;-71
2022/03/07 08:30:25;;;;;;;1.00;0.50;;;;;;;24.77;11.80;100780.16;5053985;28;20055;-71
2022/03/07 08:32:50;;;;;;;1.25;0.50;;;;;;;24.85;11.92;100787.81;5053521;28;20044;-73
2022/03/07 08:35:16;;;;;;;1.65;0.50;;;;;;;24.93;11.90;100803.66;5053025;28;20051;-73
2022/03/07 08:37:42;;;;;;;1.52;0.40;;;;;;;24.92;11.63;100809.38;5053702;28;20378;-72
2022/03/07 08:40:08;;;;;;;2.72;0.40;;;;;;;24.87;11.83;100823.88;5053069;28;20035;-73
2022/03/07 08:42:34;;;;;;;1.55;0.60;;;;;;;24.90;11.87;100834.25;5054362;28;20017;-73
2022/03/07 08:44:59;;;;;;;0.80;0.50;;;;;;;24.89;11.59;100826.34;5054745;28;20075;-72
2022/03/07 08:47:25;;;;;;;0.63;0.38;;;;;;;24.98;11.76;100829.34;5053959;28;20028;-71
2022/03/07 08:49:51;;;;;;;0.30;0.30;;;;;;;24.92;11.54;100832.09;5053143;28;20027;-71
2022/03/07 08:52:16;;;;;;;0.35;0.20;;;;;;;24.96;11.98;100837.00;5053043;28;20421;-72
2022/03/07 08:54:46;;;;;;;0.43;0.22;;;;;;;24.98;11.59;100834.81;5035316;28;20021;-72
2022/03/07 08:57:12;;;;;;;0.57;0.20;;;;;;;25.03;11.42;100838.38;5054132;28;20044;-72
2022/03/07 08:59:37;;;;;;;0.30;0.30;;;;;;;25.09;11.75;100842.75;5057392;28;20356;-73
2022/03/07 09:02:03;;;;;;;0.50;0.30;;;;;;;25.02;11.19;100835.91;5057089;28;20091;-72
2022/03/07 09:04:29;;;;;;;0.38;0.20;;;;;;;25.07;11.42;100844.91;5039474;28;20087;-72
2022/03/07 09:06:54;;;;;;;0.45;0.43;;;;;;;25.07;11.41;100838.66;5056880;28;20458;-72
2022/03/07 09:09:19;;;;;;;0.40;0.40;;;;;;;25.17;11.29;100838.63;5056916;28;20025;-72
2022/03/07 09:11:45;;;;;;;0.47;0.30;;;;;;;25.18;11.18;100840.28;5056961;28;20032;-73
2022/03/07 09:14:10;;;;;;;0.40;0.30;;;;;;;25.17;11.30;100852.31;5056870;28;20036;-73
2022/03/07 09:16:36;;;;;;;2.08;0.30;;;;;;;25.08;11.26;100862.16;5056463;28;20387;-73
2022/03/07 09:19:01;;;;;;;0.30;0.20;;;;;;;25.11;11.19;100856.13;5056459;28;20025;-73
2022/03/07 09:21:26;;;;;;;0.65;0.25;;;;;;;25.14;11.08;100866.53;5056246;28;20021;-72
2022/03/07 09:23:52;;;;;;;0.30;0.30;;;;;;;25.17;10.86;100860.53;5056095;28;20046;-72
2022/03/07 09:26:17;;;;;;;0.60;0.10;;;;;;;25.11;10.70;100865.19;5056287;28;20035;-73
2022/03/07 09:28:43;;;;;;;0.20;0.20;;;;;;;25.15;10.96;100872.81;5056466;28;20456;-72
2022/03/07 09:31:08;;;;;;;0.20;0.20;;;;;;;25.14;10.80;100872.00;5056217;28;20348;-74
2022/03/07 09:33:34;;;;;;;1.55;0.30;;;;;;;25.11;10.58;100867.91;5056004;28;20094;-72
2022/03/07 09:35:59;;;;;;;0.15;0.15;;;;;;;25.13;10.83;100864.91;5056003;28;20025;-72
2022/03/07 09:38:26;;;;;;;0.20;0.20;;;;;;;25.14;10.85;100865.72;5056278;28;20068;-73
2022/03/07 09:40:52;;;;;;;0.20;0.10;;;;;;;25.09;11.09;100870.09;5056171;28;20021;-71
2022/03/07 09:43:17;;;;;;;0.28;0.10;;;;;;;25.12;10.82;100866.00;5056472;28;20077;-71
2022/03/07 09:45:43;;;;;;;1.85;0.20;;;;;;;25.14;10.65;100866.53;5056204;28;20451;-72
2022/03/07 09:48:10;;;;;;;0.20;0.20;;;;;;;25.12;10.92;100872.28;5056601;28;20108;-72
2022/03/07 09:50:36;;;;;;;0.15;0.10;;;;;;;25.14;10.51;100874.72;5056075;28;20028;-72
2022/03/07 09:53:01;;;;;;;0.20;0.20;;;;;;;25.17;10.71;100871.47;5055752;28;20029;-72
2022/03/07 09:55:26;;;;;;;0.10;0.10;;;;;;;25.15;10.70;100875.53;5055982;28;20025;-72
2022/03/07 09:57:52;;;;;;;0.35;0.20;;;;;;;25.10;10.73;100873.66;5055746;28;20111;-73
2022/03/07 10:00:17;;;;;;;0.10;0.10;;;;;;;25.11;10.88;100878.00;5055896;28;20037;-74
2022/03/07 10:02:53;;;;;;;0.10;0.10;;;;;;;25.16;10.39;100869.81;5055669;28;20106;-72
2022/03/07 10:05:19;;;;;;;0.55;0.20;;;;;;;25.14;10.49;100872.00;5037737;28;20040;-72
2022/03/07 10:07:44;;;;;;;0.10;0.10;;;;;;;25.16;10.70;100869.81;5055418;28;20025;-72
2022/03/07 10:10:10;;;;;;;0.20;0.20;;;;;;;25.17;10.75;100866.00;5056144;28;20070;-73
2022/03/07 10:12:49;;;;;;;0.10;0.10;;;;;;;25.20;10.94;100873.66;5056251;28;20108;-73
2022/03/07 10:15:20;;;;;;;0.20;0.20;;;;;;;25.17;10.83;100876.94;5055770;28;20045;-72
2022/03/07 10:17:51;;;;;;;0.20;0.20;;;;;;;25.10;11.04;100859.97;5037214;28;20094;-72
2022/03/07 10:20:19;;;;;;;0.25;0.20;;;;;;;25.12;10.65;100883.22;5055476;28;20383;-72
2022/03/07 10:23:08;;;;;;;0.52;0.20;;;;;;;25.19;11.01;100880.22;5055259;28;20037;-71
2022/03/07 10:25:33;;;;;;;0.20;0.20;;;;;;;25.12;10.69;100876.94;5055258;28;20025;-71
2022/03/07 10:28:02;;;;;;;0.22;0.20;;;;;;;25.20;10.49;100889.22;5056002;28;20042;-72
2022/03/07 10:30:30;;;;;;;0.20;0.20;;;;;;;25.18;10.57;100894.16;5055700;28;20040;-73
2022/03/07 10:33:03;;;;;;;0.30;0.30;;;;;;;25.18;10.51;100889.53;5054932;28;20468;-73
2022/03/07 10:35:29;;;;;;;0.30;0.20;;;;;;;25.17;10.42;100893.34;5055095;28;20041;-72
2022/03/07 10:38:08;;;;;;;0.38;0.30;;;;;;;25.19;10.71;100893.06;5054655;28;20032;-70
2022/03/07 10:40:34;;;;;;;0.30;0.30;;;;;;;25.20;10.76;100898.28;5054727;28;20073;-71
2022/03/07 10:43:00;;;;;;;0.20;0.20;;;;;;;25.15;10.51;100901.00;5055204;28;20021;-70
2022/03/07 10:45:26;;;;;;;0.85;0.70;;;;;;;25.22;10.57;100896.06;5055432;28;20044;-71
2022/03/07 10:47:56;;;;;;;0.90;0.50;;;;;;;25.21;10.31;100908.09;5055455;28;20028;-74
2022/03/07 10:50:23;;;;;;;0.73;0.73;;;;;;;25.18;10.72;100911.41;5055163;28;20348;-72
2022/03/07 10:52:50;;;;;;;1.60;0.70;;;;;;;25.17;10.46;100923.41;5055151;28;20478;-73
2022/03/07 10:55:21;;;;;;;0.63;0.40;;;;;;;25.18;10.32;100916.88;5054914;28;20494;-74
2022/03/07 10:57:46;;;;;;;0.50;0.50;;;;;;;25.24;10.70;100931.38;5038138;28;20025;-73
2022/03/07 11:00:14;;;;;;;1.98;0.70;;;;;;;25.28;10.41;100925.13;5055275;28;20029;-75
2022/03/07 11:02:40;;;;;;;2.53;0.52;;;;;;;25.25;10.54;100916.56;5055519;28;20055;-71
2022/03/07 11:05:07;;;;;;;1.25;0.50;;;;;;;25.35;10.22;100934.94;5054725;28;20067;-72
2022/03/07 11:07:34;;;;;;;0.52;0.50;;;;;;;25.36;10.48;100942.88;5037403;28;20025;-71
2022/03/07 11:10:00;;;;;;;0.40;0.40;;;;;;;25.39;10.46;100941.50;5036860;28;20099;-72
2022/03/07 11:12:27;;;;;;;0.68;0.35;;;;;;;25.41;10.47;100945.63;5054871;28;20036;-71
2022/03/07 11:14:52;;;;;;;0.95;0.40;;;;;;;25.45;10.24;100949.44;5037224;28;20016;-72
2022/03/07 11:17:18;;;;;;;0.30;0.30;;;;;;;25.56;10.14;100961.22;5019739;28;20378;-70